createdAt,value
2018-12-24T00:01:13.093Z,5.70
2018-12-24T00:03:42.506Z,5.60
2018-12-24T00:06:12.103Z,5.60
2018-12-24T00:08:41.515Z,5.70
2018-12-24T00:11:11.386Z,5.60
2018-12-24T00:13:40.529Z,5.60
2018-12-24T00:16:10.117Z,5.70
2018-12-24T00:18:39.509Z,5.60
2018-12-24T00:21:09.378Z,5.60
2018-12-24T00:23:39.008Z,5.60
2018-12-24T00:26:08.400Z,5.50
2018-12-24T00:28:38.350Z,5.50
2018-12-24T00:31:08.024Z,5.50
2018-12-24T00:33:38.158Z,5.50
2018-12-24T00:36:07.818Z,5.50
2018-12-24T00:38:36.965Z,5.50
2018-12-24T00:41:06.602Z,5.50
2018-12-24T00:43:36.299Z,5.50
2018-12-24T00:46:05.478Z,5.50
2018-12-24T00:48:35.109Z,5.50
2018-12-24T00:51:04.498Z,5.50
2018-12-24T00:53:33.686Z,5.40
2018-12-24T00:56:03.263Z,5.40
2018-12-24T00:58:32.411Z,5.40
2018-12-24T01:01:01.785Z,5.40
2018-12-24T01:03:30.989Z,5.40
2018-12-24T01:06:00.647Z,5.40
2018-12-24T01:08:30.038Z,5.40
2018-12-24T01:10:59.409Z,5.40
2018-12-24T01:13:29.328Z,5.40
2018-12-24T01:15:58.706Z,5.50
2018-12-24T01:18:28.302Z,5.50
2018-12-24T01:20:57.734Z,5.50
2018-12-24T01:23:27.158Z,5.40
2018-12-24T01:25:56.819Z,5.40
2018-12-24T01:28:26.073Z,5.30
2018-12-24T01:30:55.737Z,5.20
2018-12-24T01:33:25.374Z,5.20
2018-12-24T01:35:54.534Z,5.20
2018-12-24T01:38:24.410Z,5.20
2018-12-24T01:40:53.536Z,5.20
2018-12-24T01:43:22.956Z,5.20
2018-12-24T01:45:52.341Z,5.20
2018-12-24T01:48:22.025Z,5.20
2018-12-24T01:50:51.189Z,5.20
2018-12-24T01:53:20.826Z,5.20
2018-12-24T01:55:50.180Z,5.20
2018-12-24T01:58:19.797Z,5.20
2018-12-24T02:00:49.145Z,5.20
2018-12-24T02:03:18.554Z,5.20
2018-12-24T02:05:48.166Z,5.20
2018-12-24T02:08:17.539Z,5.30
2018-12-24T02:10:47.174Z,5.20
2018-12-24T02:13:16.584Z,5.30
2018-12-24T02:15:45.725Z,5.30
2018-12-24T02:18:14.857Z,5.30
2018-12-24T02:20:44.273Z,5.30
2018-12-24T02:23:13.430Z,5.30
2018-12-24T02:25:42.808Z,5.30
2018-12-24T02:28:12.398Z,5.30
2018-12-24T02:30:42.250Z,5.30
2018-12-24T02:33:11.641Z,5.30
2018-12-24T02:35:41.269Z,5.30
2018-12-24T02:38:10.876Z,5.30
2018-12-24T02:40:40.550Z,5.30
2018-12-24T02:43:10.173Z,5.30
2018-12-24T02:45:39.590Z,5.30
2018-12-24T02:48:08.699Z,5.40
2018-12-24T02:50:38.556Z,5.40
2018-12-24T02:53:07.688Z,5.40
2018-12-24T02:55:37.070Z,5.40
2018-12-24T02:58:06.778Z,5.40
2018-12-24T03:00:36.150Z,5.40
2018-12-24T03:03:05.969Z,5.50
2018-12-24T03:05:35.622Z,5.40
2018-12-24T03:08:04.731Z,5.40
2018-12-24T03:10:33.954Z,5.40
2018-12-24T03:13:03.355Z,5.40
2018-12-24T03:15:33.054Z,5.40
2018-12-24T03:18:02.171Z,5.40
2018-12-24T03:20:31.706Z,5.50
2018-12-24T03:23:01.486Z,5.50
2018-12-24T03:25:30.614Z,5.60
2018-12-24T03:27:59.761Z,5.60
2018-12-24T03:30:29.500Z,5.70
2018-12-24T03:32:58.610Z,5.70
2018-12-24T03:35:27.978Z,5.70
2018-12-24T03:37:57.572Z,5.70
2018-12-24T03:40:27.561Z,5.70
2018-12-24T03:42:57.358Z,5.70
2018-12-24T03:45:26.962Z,5.80
2018-12-24T03:47:57.091Z,5.80
2018-12-24T03:50:26.445Z,5.80
2018-12-24T03:52:55.558Z,5.80
2018-12-24T03:55:24.937Z,5.80
2018-12-24T03:57:54.791Z,5.80
2018-12-24T04:00:24.168Z,5.80
2018-12-24T04:02:53.604Z,5.80
2018-12-24T04:05:22.865Z,5.80
2018-12-24T04:07:52.234Z,5.90
2018-12-24T04:10:21.585Z,5.80
2018-12-24T04:12:51.029Z,5.80
2018-12-24T04:15:20.389Z,5.80
2018-12-24T04:17:49.505Z,5.90
2018-12-24T04:20:18.940Z,5.80
2018-12-24T04:22:48.069Z,5.80
2018-12-24T04:25:17.221Z,5.80
2018-12-24T04:27:46.809Z,5.90
2018-12-24T04:30:15.921Z,5.80
2018-12-24T04:32:45.306Z,5.80
2018-12-24T04:35:14.450Z,5.70
2018-12-24T04:37:44.096Z,5.70
2018-12-24T04:40:13.225Z,5.70
2018-12-24T04:42:42.632Z,5.70
2018-12-24T04:45:11.763Z,5.70
2018-12-24T04:47:41.106Z,5.70
2018-12-24T04:50:10.943Z,5.70
2018-12-24T04:52:40.320Z,5.70
2018-12-24T04:55:09.934Z,5.70
2018-12-24T04:57:39.287Z,5.60
2018-12-24T05:00:08.518Z,5.60
2018-12-24T05:02:37.941Z,5.60
2018-12-24T05:05:07.339Z,5.60
2018-12-24T05:07:36.689Z,5.60
2018-12-24T05:10:05.994Z,5.60
2018-12-24T05:12:35.383Z,5.60
2018-12-24T05:15:04.908Z,5.70
2018-12-24T05:17:34.566Z,5.60
2018-12-24T05:20:03.722Z,5.70
2018-12-24T05:22:33.078Z,5.70
2018-12-24T05:25:02.482Z,5.70
2018-12-24T05:27:31.822Z,5.70
2018-12-24T05:30:01.411Z,5.70
2018-12-24T05:32:30.802Z,5.70
2018-12-24T05:35:00.176Z,5.70
2018-12-24T05:37:29.854Z,5.70
2018-12-24T05:39:59.302Z,5.70
2018-12-24T05:42:28.894Z,5.60
2018-12-24T05:44:58.000Z,5.60
2018-12-24T05:47:27.138Z,5.60
2018-12-24T05:49:56.489Z,5.60
2018-12-24T05:52:25.841Z,5.60
2018-12-24T05:54:55.273Z,5.60
2018-12-24T05:57:24.649Z,5.60
2018-12-24T05:59:55.500Z,5.50
2018-12-24T06:02:25.349Z,5.60
2018-12-24T06:04:54.721Z,5.60
2018-12-24T06:07:24.456Z,5.60
2018-12-24T06:09:53.881Z,5.50
2018-12-24T06:12:23.465Z,5.60
2018-12-24T06:14:52.810Z,5.50
2018-12-24T06:17:22.186Z,5.60
2018-12-24T06:19:51.541Z,5.60
2018-12-24T06:22:20.883Z,5.60
2018-12-24T06:24:50.248Z,5.60
2018-12-24T06:27:19.846Z,5.60
2018-12-24T06:29:49.232Z,5.50
2018-12-24T06:32:18.341Z,5.50
2018-12-24T06:34:47.930Z,5.50
2018-12-24T06:37:17.381Z,5.50
2018-12-24T06:39:46.737Z,5.50
2018-12-24T06:42:18.174Z,5.50
2018-12-24T06:44:47.661Z,5.40
2018-12-24T06:47:16.787Z,5.40
2018-12-24T06:49:46.206Z,5.50
2018-12-24T06:52:15.316Z,5.40
2018-12-24T06:54:44.682Z,5.50
2018-12-24T06:57:14.657Z,5.50
2018-12-24T06:59:44.024Z,5.50
2018-12-24T07:02:13.176Z,5.50
2018-12-24T07:04:43.306Z,5.40
2018-12-24T07:07:12.422Z,5.40
2018-12-24T07:09:41.575Z,5.40
2018-12-24T07:12:10.728Z,5.40
2018-12-24T07:14:40.306Z,5.40
2018-12-24T07:17:09.417Z,5.50
2018-12-24T07:19:38.553Z,5.50
2018-12-24T07:22:07.665Z,5.50
2018-12-24T07:24:37.508Z,5.40
2018-12-24T07:27:07.104Z,5.50
2018-12-24T07:29:37.211Z,5.40
2018-12-24T07:32:06.839Z,5.40
2018-12-24T07:34:36.218Z,5.40
2018-12-24T07:37:05.569Z,5.40
2018-12-24T07:39:35.227Z,5.40
2018-12-24T07:42:04.866Z,5.30
2018-12-24T07:44:34.245Z,5.20
2018-12-24T07:47:04.017Z,5.20
2018-12-24T07:49:33.689Z,5.20
2018-12-24T07:52:03.157Z,5.10
2018-12-24T07:54:32.955Z,5.10
2018-12-24T07:57:02.316Z,5.10
2018-12-24T07:59:31.941Z,5.00
2018-12-24T08:02:01.800Z,5.00
2018-12-24T08:04:31.514Z,4.90
2018-12-24T08:07:01.188Z,4.80
2018-12-24T08:09:30.457Z,4.80
2018-12-24T08:12:00.181Z,4.80
2018-12-24T08:14:33.206Z,4.70
2018-12-24T08:17:01.458Z,4.70
2018-12-24T08:19:30.920Z,4.60
2018-12-24T08:22:00.601Z,4.60
2018-12-24T08:24:30.106Z,4.60
2018-12-24T08:26:59.575Z,4.60
2018-12-24T08:29:29.614Z,4.60
2018-12-24T08:31:59.232Z,4.50
2018-12-24T08:34:29.360Z,4.50
2018-12-24T08:36:58.969Z,4.40
2018-12-24T08:39:28.952Z,4.40
2018-12-24T08:41:58.158Z,4.40
2018-12-24T08:44:27.648Z,4.40
2018-12-24T08:46:57.196Z,4.40
2018-12-24T08:49:26.329Z,4.40
2018-12-24T08:51:56.084Z,4.40
2018-12-24T08:54:25.222Z,4.50
2018-12-24T08:56:54.891Z,4.50
2018-12-24T08:59:24.885Z,4.50
2018-12-24T09:01:54.529Z,4.50
2018-12-24T09:04:24.141Z,4.50
2018-12-24T09:06:53.521Z,4.50
2018-12-24T09:09:23.256Z,4.50
2018-12-24T09:11:52.412Z,4.50
2018-12-24T09:14:22.151Z,4.50
2018-12-24T09:16:51.961Z,4.50
2018-12-24T09:19:21.669Z,4.50
2018-12-24T09:21:51.394Z,4.50
2018-12-24T09:24:20.578Z,4.50
2018-12-24T09:26:50.025Z,4.50
2018-12-24T09:29:19.706Z,4.40
2018-12-24T09:31:49.091Z,4.40
2018-12-24T09:34:18.266Z,4.40
2018-12-24T09:36:47.791Z,4.30
2018-12-24T09:39:17.630Z,4.30
2018-12-24T09:41:47.382Z,4.30
2018-12-24T09:44:16.837Z,4.30
2018-12-24T09:46:47.284Z,4.30
2018-12-24T09:49:16.882Z,4.30
2018-12-24T09:51:46.373Z,4.20
2018-12-24T09:54:15.565Z,4.10
2018-12-24T09:56:45.405Z,4.00
2018-12-24T09:59:15.084Z,3.90
2018-12-24T10:01:44.961Z,3.80
2018-12-24T10:04:24.278Z,3.60
2018-12-24T10:06:54.053Z,3.60
2018-12-24T10:09:23.769Z,3.60
2018-12-24T10:11:53.298Z,3.50
2018-12-24T10:14:22.521Z,3.50
2018-12-24T10:16:52.517Z,3.50
2018-12-24T10:19:22.918Z,3.40
2018-12-24T10:21:52.858Z,3.50
2018-12-24T10:24:22.309Z,3.50
2018-12-24T10:26:51.704Z,3.50
2018-12-24T10:29:21.337Z,3.40
2018-12-24T10:31:50.540Z,3.40
2018-12-24T10:34:54.173Z,3.50
2018-12-24T10:37:23.377Z,3.60
2018-12-24T10:39:52.308Z,3.60
2018-12-24T10:42:21.563Z,3.70
2018-12-24T10:44:50.797Z,3.80
2018-12-24T10:47:20.131Z,3.80
2018-12-24T10:49:49.334Z,3.80
2018-12-24T10:52:18.290Z,3.90
2018-12-24T10:54:47.250Z,3.90
2018-12-24T10:57:16.942Z,3.90
2018-12-24T10:59:45.681Z,3.90
2018-12-24T11:02:14.410Z,3.80
2018-12-24T11:04:43.585Z,3.80
2018-12-24T11:07:12.653Z,3.80
2018-12-24T11:09:41.645Z,3.70
2018-12-24T11:12:10.394Z,3.70
2018-12-24T11:14:39.653Z,3.60
2018-12-24T11:17:09.095Z,3.60
2018-12-24T11:19:38.142Z,3.50
2018-12-24T11:22:06.844Z,3.50
2018-12-24T11:24:36.146Z,3.40
2018-12-24T11:27:05.115Z,3.40
2018-12-24T11:29:34.461Z,3.40
2018-12-24T11:32:05.193Z,3.40
2018-12-24T11:34:40.126Z,3.40
2018-12-24T11:37:10.361Z,3.40
2018-12-24T11:39:39.874Z,3.40
2018-12-24T11:42:08.887Z,3.40
2018-12-24T11:44:38.155Z,3.40
2018-12-24T11:47:07.068Z,3.40
2018-12-24T11:49:38.126Z,3.40
2018-12-24T11:52:08.444Z,3.40
2018-12-24T11:54:37.793Z,3.40
2018-12-24T11:57:06.868Z,3.40
2018-12-24T11:59:35.934Z,3.50
2018-12-24T12:02:09.899Z,3.50
2018-12-24T12:04:35.817Z,3.50
2018-12-24T12:07:04.601Z,3.50
2018-12-24T12:09:33.657Z,3.60
2018-12-24T12:12:02.648Z,3.60
2018-12-24T12:14:31.441Z,3.60
2018-12-24T12:17:00.564Z,3.60
2018-12-24T12:19:29.348Z,3.60
2018-12-24T12:21:58.089Z,3.60
2018-12-24T12:24:27.049Z,3.60
2018-12-24T12:26:56.355Z,3.60
2018-12-24T12:29:25.445Z,3.70
2018-12-24T12:31:54.410Z,3.70
2018-12-24T12:34:23.426Z,3.70
2018-12-24T12:36:52.193Z,3.70
2018-12-24T12:39:21.293Z,3.80
2018-12-24T12:41:50.474Z,3.80
2018-12-24T12:44:19.249Z,3.80
2018-12-24T12:46:48.393Z,3.80
2018-12-24T12:49:36.643Z,3.90
2018-12-24T12:52:06.130Z,3.90
2018-12-24T12:54:35.381Z,3.90
2018-12-24T12:57:04.181Z,3.90
2018-12-24T12:59:33.221Z,4.00
2018-12-24T13:02:02.461Z,4.10
2018-12-24T13:04:31.367Z,4.20
2018-12-24T13:07:00.175Z,4.40
2018-12-24T13:09:29.139Z,4.50
2018-12-24T13:11:58.218Z,4.70
2018-12-24T13:14:27.525Z,4.80
2018-12-24T13:16:56.234Z,4.90
2018-12-24T13:19:25.229Z,5.00
2018-12-24T13:21:53.971Z,5.40
2018-12-24T13:24:23.002Z,5.90
2018-12-24T13:26:52.025Z,6.20
2018-12-24T13:29:20.714Z,6.30
2018-12-24T13:31:49.435Z,6.40
2018-12-24T13:34:18.621Z,6.50
2018-12-24T13:36:47.583Z,6.40
2018-12-24T13:39:16.788Z,6.20
2018-12-24T13:41:45.481Z,6.00
2018-12-24T13:44:14.693Z,5.80
2018-12-24T13:46:43.664Z,5.60
2018-12-24T13:49:12.400Z,5.30
2018-12-24T13:51:41.146Z,5.20
2018-12-24T13:54:10.129Z,5.20
2018-12-24T13:56:39.078Z,5.30
2018-12-24T13:59:08.249Z,5.30
2018-12-24T14:01:37.254Z,5.30
2018-12-24T14:04:05.961Z,5.30
2018-12-24T14:06:34.941Z,5.20
2018-12-24T14:09:05.601Z,5.20
2018-12-24T14:11:34.362Z,5.10
2018-12-24T14:14:03.326Z,5.00
2018-12-24T14:16:32.329Z,5.00
2018-12-24T14:19:01.272Z,4.90
2018-12-24T14:21:29.981Z,4.80
2018-12-24T14:23:59.201Z,4.80
2018-12-24T14:26:28.211Z,4.70
2018-12-24T14:28:56.925Z,4.70
2018-12-24T14:31:25.859Z,4.60
2018-12-24T14:33:54.801Z,4.60
2018-12-24T14:36:23.546Z,4.50
2018-12-24T14:38:52.240Z,4.50
2018-12-24T14:41:20.980Z,4.40
2018-12-24T14:43:49.954Z,4.40
2018-12-24T14:46:25.553Z,4.40
2018-12-24T14:48:49.346Z,4.30
2018-12-24T14:51:18.089Z,4.30
2018-12-24T14:53:47.023Z,4.30
2018-12-24T14:56:15.964Z,4.20
2018-12-24T14:58:44.693Z,4.20
2018-12-24T15:01:13.379Z,4.20
2018-12-24T15:03:42.344Z,4.10
2018-12-24T15:06:11.756Z,4.10
2018-12-24T15:08:40.724Z,4.00
2018-12-24T15:11:09.429Z,3.90
2018-12-24T15:13:38.433Z,3.90
2018-12-24T15:16:07.384Z,3.80
2018-12-24T15:18:36.454Z,3.70
2018-12-24T15:21:05.170Z,3.70
2018-12-24T15:23:33.881Z,3.70
2018-12-24T15:26:02.589Z,3.70
2018-12-24T15:28:31.531Z,3.80
2018-12-24T15:31:00.272Z,3.80
2018-12-24T15:33:29.218Z,3.80
2018-12-24T15:35:57.972Z,3.80
2018-12-24T15:38:26.771Z,3.80
2018-12-24T15:40:55.936Z,3.80
2018-12-24T15:43:24.641Z,3.80
2018-12-24T15:45:53.621Z,3.70
2018-12-24T15:48:22.357Z,3.60
2018-12-24T15:50:51.082Z,3.50
2018-12-24T15:53:20.249Z,3.50
2018-12-24T15:55:48.976Z,3.40
2018-12-24T15:58:17.708Z,3.40
2018-12-24T16:00:46.433Z,3.30
2018-12-24T16:03:15.129Z,3.20
2018-12-24T16:05:44.102Z,3.10
2018-12-24T16:08:13.048Z,3.00
2018-12-24T16:10:42.253Z,2.90
2018-12-24T16:13:11.453Z,2.90
2018-12-24T16:15:40.399Z,2.90
2018-12-24T16:18:09.117Z,2.90
2018-12-24T16:20:38.153Z,2.90
2018-12-24T16:23:06.879Z,2.90
2018-12-24T16:25:35.570Z,2.90
2018-12-24T16:28:04.507Z,2.90
2018-12-24T16:30:33.937Z,3.00
2018-12-24T16:33:03.132Z,3.00
2018-12-24T16:35:31.824Z,3.00
2018-12-24T16:38:00.550Z,3.00
2018-12-24T16:40:29.529Z,3.10
2018-12-24T16:42:58.725Z,3.10
2018-12-24T16:45:27.674Z,3.20
2018-12-24T16:47:56.638Z,3.20
2018-12-24T16:50:25.581Z,3.30
2018-12-24T16:52:54.277Z,3.30
2018-12-24T16:55:22.997Z,3.40
2018-12-24T16:57:52.208Z,3.40
2018-12-24T17:00:20.913Z,3.40
2018-12-24T17:02:49.865Z,3.40
2018-12-24T17:05:18.569Z,3.50
2018-12-24T17:07:47.776Z,3.50
2018-12-24T17:10:16.722Z,3.50
2018-12-24T17:12:45.484Z,3.50
2018-12-24T17:15:14.450Z,3.60
2018-12-24T17:17:43.643Z,3.60
2018-12-24T17:20:12.607Z,3.60
2018-12-24T17:22:41.565Z,3.60
2018-12-24T17:25:10.885Z,3.70
2018-12-24T17:27:39.812Z,3.70
2018-12-24T17:30:08.760Z,3.70
2018-12-24T17:32:37.732Z,3.60
2018-12-24T17:35:06.504Z,3.60
2018-12-24T17:37:35.472Z,3.70
2018-12-24T17:40:04.588Z,3.70
2018-12-24T17:42:33.308Z,3.70
2018-12-24T17:45:04.094Z,3.80
2018-12-24T17:47:33.410Z,3.80
2018-12-24T17:50:02.214Z,3.80
2018-12-24T17:52:30.917Z,3.90
2018-12-24T17:54:59.635Z,3.90
2018-12-24T17:57:28.322Z,3.90
2018-12-24T17:59:57.537Z,3.90
2018-12-24T18:02:26.489Z,4.00
2018-12-24T18:04:55.493Z,3.90
2018-12-24T18:07:24.496Z,4.00
2018-12-24T18:09:53.189Z,4.00
2018-12-24T18:12:22.405Z,4.00
2018-12-24T18:14:51.356Z,4.00
2018-12-24T18:17:24.677Z,4.10
2018-12-24T18:19:50.997Z,4.10
2018-12-24T18:22:19.730Z,4.20
2018-12-24T18:24:48.489Z,4.20
2018-12-24T18:27:17.301Z,4.10
2018-12-24T18:29:46.350Z,4.20
2018-12-24T18:32:15.807Z,4.10
2018-12-24T18:34:44.550Z,4.20
2018-12-24T18:37:13.241Z,4.10
2018-12-24T18:39:42.464Z,4.10
2018-12-24T18:42:11.163Z,4.10
2018-12-24T18:44:40.374Z,4.10
2018-12-24T18:47:09.329Z,4.20
2018-12-24T18:49:38.056Z,4.20
2018-12-24T18:52:06.773Z,4.20
2018-12-24T18:54:38.525Z,4.20
2018-12-24T18:57:07.489Z,4.20
2018-12-24T18:59:36.270Z,4.20
2018-12-24T19:02:05.818Z,4.20
2018-12-24T19:04:36.018Z,4.30
2018-12-24T19:07:04.744Z,4.30
2018-12-24T19:09:33.698Z,4.20
2018-12-24T19:12:02.668Z,4.10
2018-12-24T19:14:31.879Z,4.10
2018-12-24T19:17:00.825Z,4.10
2018-12-24T19:19:29.789Z,4.10
2018-12-24T19:21:59.024Z,4.20
2018-12-24T19:24:28.220Z,4.20
2018-12-24T19:26:57.234Z,4.10
2018-12-24T19:29:25.959Z,4.20
2018-12-24T19:31:54.945Z,4.10
2018-12-24T19:34:23.642Z,4.20
2018-12-24T19:36:52.378Z,4.20
2018-12-24T19:39:21.336Z,4.10
2018-12-24T19:41:50.334Z,4.10
2018-12-24T19:44:19.535Z,4.10
2018-12-24T19:46:48.522Z,4.10
2018-12-24T19:49:17.461Z,4.00
2018-12-24T19:51:46.688Z,4.00
2018-12-24T19:54:15.649Z,3.90
2018-12-24T19:56:44.602Z,3.90
2018-12-24T19:59:14.098Z,3.90
2018-12-24T20:01:42.869Z,4.00
2018-12-24T20:04:12.066Z,4.00
2018-12-24T20:06:41.045Z,4.00
2018-12-24T20:09:09.770Z,4.00
2018-12-24T20:11:38.467Z,4.00
2018-12-24T20:14:07.193Z,4.00
2018-12-24T20:16:36.154Z,4.10
2018-12-24T20:19:04.890Z,4.00
2018-12-24T20:21:33.821Z,4.00
2018-12-24T20:24:02.541Z,4.10
2018-12-24T20:26:31.253Z,4.10
2018-12-24T20:29:00.223Z,4.10
2018-12-24T20:31:28.968Z,4.10
2018-12-24T20:33:57.970Z,4.10
2018-12-24T20:36:26.929Z,4.10
2018-12-24T20:38:55.873Z,4.20
2018-12-24T20:41:24.609Z,4.20
2018-12-24T20:43:54.094Z,4.20
2018-12-24T20:46:23.032Z,4.20
2018-12-24T20:48:52.610Z,4.20
2018-12-24T20:51:21.691Z,4.20
2018-12-24T20:53:51.134Z,4.20
2018-12-24T20:56:19.845Z,4.20
2018-12-24T20:58:48.806Z,4.20
2018-12-24T21:01:17.509Z,4.20
2018-12-24T21:03:46.237Z,4.20
2018-12-24T21:06:14.985Z,4.20
2018-12-24T21:08:43.721Z,4.20
2018-12-24T21:11:12.506Z,4.30
2018-12-24T21:13:41.737Z,4.20
2018-12-24T21:16:10.954Z,4.20
2018-12-24T21:18:41.576Z,4.20
2018-12-24T21:21:10.941Z,4.20
2018-12-24T21:23:39.917Z,4.10
2018-12-24T21:26:08.637Z,4.20
2018-12-24T21:28:37.391Z,4.20
2018-12-24T21:31:06.333Z,4.20
2018-12-24T21:33:35.310Z,4.20
2018-12-24T21:36:04.317Z,4.20
2018-12-24T21:38:33.307Z,4.20
2018-12-24T21:41:02.286Z,4.20
2018-12-24T21:43:31.253Z,4.20
2018-12-24T21:45:59.993Z,4.30
2018-12-24T21:48:28.735Z,4.30
2018-12-24T21:50:57.438Z,4.30
2018-12-24T21:53:27.070Z,4.30
2018-12-24T21:55:55.795Z,4.30
2018-12-24T21:58:24.684Z,4.30
2018-12-24T22:00:54.106Z,4.30
2018-12-24T22:03:23.153Z,4.30
2018-12-24T22:05:52.132Z,4.40
2018-12-24T22:08:20.894Z,4.30
2018-12-24T22:10:49.620Z,4.30
2018-12-24T22:13:18.339Z,4.30
2018-12-24T22:15:48.176Z,4.30
2018-12-24T22:18:17.142Z,4.30
2018-12-24T22:20:46.106Z,4.30
2018-12-24T22:23:15.607Z,4.20
2018-12-24T22:25:45.442Z,4.20
2018-12-24T22:28:14.412Z,4.20
2018-12-24T22:30:43.141Z,4.20
2018-12-24T22:33:11.845Z,4.20
2018-12-24T22:35:40.585Z,4.20
2018-12-24T22:38:09.295Z,4.20
2018-12-24T22:40:38.458Z,4.20
2018-12-24T22:43:07.425Z,4.20
2018-12-24T22:45:36.144Z,4.20
2018-12-24T22:48:05.117Z,4.10
2018-12-24T22:50:34.875Z,4.10
2018-12-24T22:53:03.610Z,4.10
2018-12-24T22:55:32.623Z,4.10
2018-12-24T22:58:01.565Z,4.10
2018-12-24T23:00:37.564Z,4.10
2018-12-24T23:03:06.312Z,4.10
2018-12-24T23:05:35.254Z,4.10
2018-12-24T23:08:03.996Z,4.20
2018-12-24T23:10:32.944Z,4.20
2018-12-24T23:13:01.905Z,4.20
2018-12-24T23:15:30.625Z,4.20
2018-12-24T23:17:59.392Z,4.30
2018-12-24T23:20:28.341Z,4.30
2018-12-24T23:22:57.074Z,4.20
2018-12-24T23:25:26.104Z,4.20
2018-12-24T23:27:54.816Z,4.20
2018-12-24T23:30:23.773Z,4.20
2018-12-24T23:32:52.505Z,4.20
2018-12-24T23:35:21.458Z,4.20
2018-12-24T23:37:50.190Z,4.20
2018-12-24T23:40:18.886Z,4.20
2018-12-24T23:42:47.932Z,4.30
2018-12-24T23:45:16.881Z,4.30
2018-12-24T23:47:45.581Z,4.30
2018-12-24T23:50:14.384Z,4.30
2018-12-24T23:52:43.132Z,4.30
2018-12-24T23:55:12.350Z,4.30
2018-12-24T23:57:41.042Z,4.30
